Time;durP1;ratioP1;P1;durP2;ratioP2;P2;SDS_P1;SDS_P2;PMS_P1;PMS_P2;Temp;Humidity;BMP_temperature;BMP_pressure;BME280_temperature;BME280_humidity;BME280_pressure;Samples;Min_cycle;Max_cycle;Signal;HPM_P1;HPM_P2
2021/12/07 00:01:18;;;;;;;27.23;18.33;;;2.50;99.90;;;;;;5056507;28;20481;-38
2021/12/07 00:03:46;;;;;;;33.00;19.23;;;2.50;99.90;;;;;;5074494;28;20048;-38
2021/12/07 00:06:13;;;;;;;32.20;20.08;;;2.40;99.90;;;;;;5074200;28;20445;-36
2021/12/07 00:08:41;;;;;;;35.53;20.33;;;2.30;99.90;;;;;;5074615;28;20120;-37
2021/12/07 00:11:08;;;;;;;34.67;20.63;;;2.30;99.90;;;;;;5056031;28;20045;-37
2021/12/07 00:13:37;;;;;;;36.05;20.85;;;2.30;99.90;;;;;;5056657;28;20052;-39
2021/12/07 00:16:05;;;;;;;34.08;20.15;;;2.30;99.90;;;;;;5056026;28;20054;-38
2021/12/07 00:18:32;;;;;;;32.03;20.23;;;2.30;99.90;;;;;;5074744;28;20098;-37
2021/12/07 00:21:00;;;;;;;31.85;20.35;;;2.30;99.90;;;;;;5056170;28;21552;-37
2021/12/07 00:23:27;;;;;;;31.35;20.27;;;2.30;99.90;;;;;;5073821;28;20546;-37
2021/12/07 00:25:54;;;;;;;31.67;20.42;;;2.30;99.90;;;;;;5056276;28;20084;-37
2021/12/07 00:28:23;;;;;;;33.33;20.38;;;2.20;99.90;;;;;;5056540;28;20088;-36
2021/12/07 00:30:51;;;;;;;36.08;21.48;;;2.10;99.90;;;;;;5071490;28;20102;-36
2021/12/07 00:33:32;;;;;;;35.13;20.85;;;2.10;99.90;;;;;;5073252;28;20492;-37
2021/12/07 00:36:00;;;;;;;32.40;20.70;;;2.10;99.90;;;;;;5074175;28;21661;-36
2021/12/07 00:38:27;;;;;;;35.88;20.95;;;2.10;99.90;;;;;;5056232;28;20053;-37
2021/12/07 00:40:55;;;;;;;32.25;19.98;;;2.10;99.90;;;;;;5073729;28;20059;-37
2021/12/07 00:43:22;;;;;;;36.38;22.17;;;2.00;99.90;;;;;;5073659;28;20155;-37
2021/12/07 00:45:51;;;;;;;29.83;20.35;;;1.90;99.90;;;;;;5055225;28;20166;-37
2021/12/07 00:48:18;;;;;;;32.75;21.20;;;1.90;99.90;;;;;;5056526;28;20056;-37
2021/12/07 00:50:47;;;;;;;34.28;20.77;;;1.90;99.90;;;;;;5055583;28;20048;-38
2021/12/07 00:53:15;;;;;;;31.02;19.92;;;1.90;99.90;;;;;;5069836;28;20040;-37
2021/12/07 00:55:45;;;;;;;30.45;20.55;;;1.90;99.90;;;;;;5072732;28;20045;-36
2021/12/07 00:58:17;;;;;;;36.80;21.38;;;1.80;99.90;;;;;;5072264;28;20105;-37
2021/12/07 01:00:45;;;;;;;33.45;21.10;;;1.80;99.90;;;;;;5054018;28;20045;-37
2021/12/07 01:03:12;;;;;;;30.45;20.45;;;1.80;99.90;;;;;;5072561;28;20052;-37
2021/12/07 01:05:40;;;;;;;30.67;20.25;;;1.80;99.90;;;;;;5073293;28;20048;-37
2021/12/07 01:08:25;;;;;;;33.53;21.98;;;1.80;99.90;;;;;;5071674;28;20084;-37
2021/12/07 01:24:42;;;;;;;28.17;19.15;;;1.70;99.90;;;;;;5073316;28;20501;-37
2021/12/07 01:27:12;;;;;;;29.75;19.90;;;1.70;99.90;;;;;;5057157;28;20139;-37
2021/12/07 01:29:41;;;;;;;31.77;20.67;;;1.70;99.90;;;;;;5054742;28;20508;-37
2021/12/07 01:32:18;;;;;;;28.73;20.05;;;1.70;99.90;;;;;;5072783;28;20040;-37
2021/12/07 01:37:37;;;;;;;33.15;20.92;;;1.60;99.90;;;;;;5067281;28;20413;-37
2021/12/07 01:40:27;;;;;;;29.80;20.67;;;1.60;99.90;;;;;;5071917;28;20044;-37
2021/12/07 01:43:26;;;;;;;28.48;18.73;;;1.60;99.90;;;;;;5054681;28;20059;-38
2021/12/07 01:46:12;;;;;;;29.27;19.42;;;1.60;99.90;;;;;;5072453;28;20072;-36
2021/12/07 01:51:41;;;;;;;30.05;20.13;;;1.60;99.90;;;;;;5072219;28;20048;-37
2021/12/07 01:59:38;;;;;;;28.38;18.45;;;1.60;99.90;;;;;;5072588;28;20131;-37
2021/12/07 02:02:06;;;;;;;28.27;18.52;;;1.60;99.90;;;;;;5054528;28;20385;-37
2021/12/07 02:04:33;;;;;;;27.95;19.00;;;1.60;99.90;;;;;;5053756;28;20126;-37
2021/12/07 02:07:01;;;;;;;26.40;18.13;;;1.60;99.90;;;;;;5071900;28;20076;-36
2021/12/07 02:09:28;;;;;;;29.35;18.50;;;1.60;99.90;;;;;;5070957;28;20079;-36
2021/12/07 02:11:59;;;;;;;29.45;19.70;;;1.60;99.90;;;;;;5066124;28;20057;-36
2021/12/07 02:14:26;;;;;;;28.98;19.42;;;1.60;99.90;;;;;;5065723;28;20909;-37
2021/12/07 02:16:56;;;;;;;31.60;20.10;;;1.60;99.90;;;;;;5052318;28;20059;-37
2021/12/07 02:19:23;;;;;;;29.02;19.10;;;1.60;99.90;;;;;;5072568;28;20504;-37
2021/12/07 02:21:52;;;;;;;33.38;20.48;;;1.60;99.90;;;;;;5053122;28;20048;-37
2021/12/07 02:24:19;;;;;;;33.00;20.70;;;1.60;99.90;;;;;;5066078;28;20135;-37
2021/12/07 02:26:47;;;;;;;27.77;19.10;;;1.60;99.90;;;;;;5072139;28;20105;-37
2021/12/07 02:29:14;;;;;;;31.67;20.75;;;1.60;99.90;;;;;;5053847;28;20480;-37
2021/12/07 02:31:41;;;;;;;28.83;19.70;;;1.60;99.90;;;;;;5051459;28;20068;-37
2021/12/07 02:34:08;;;;;;;34.05;20.67;;;1.60;99.90;;;;;;5071721;28;20459;-36
2021/12/07 02:36:36;;;;;;;33.88;22.17;;;1.70;99.90;;;;;;5053749;28;20124;-38
2021/12/07 02:39:05;;;;;;;34.85;20.98;;;1.60;99.90;;;;;;5053383;28;20213;-37
2021/12/07 02:41:33;;;;;;;33.20;21.35;;;1.60;99.90;;;;;;5071823;28;20068;-37
2021/12/07 02:44:00;;;;;;;32.55;21.67;;;1.60;99.90;;;;;;5053452;28;20404;-38
2021/12/07 02:46:27;;;;;;;31.20;21.52;;;1.60;99.90;;;;;;5053449;28;20076;-38
2021/12/07 02:48:54;;;;;;;32.30;20.80;;;1.60;99.90;;;;;;5053771;28;20396;-37
2021/12/07 02:51:21;;;;;;;33.42;20.58;;;1.60;99.90;;;;;;5040811;28;20127;-38
2021/12/07 02:53:48;;;;;;;29.92;19.73;;;1.60;99.90;;;;;;5053407;28;20084;-37
2021/12/07 02:56:17;;;;;;;29.40;19.52;;;1.60;99.90;;;;;;5071720;28;20052;-38
2021/12/07 02:58:44;;;;;;;29.75;20.27;;;1.60;99.90;;;;;;5063303;28;20047;-38
2021/12/07 03:01:17;;;;;;;32.08;21.38;;;1.70;99.90;;;;;;5047558;28;20045;-37
2021/12/07 03:03:53;;;;;;;28.85;19.90;;;1.70;99.90;;;;;;5071482;28;20045;-38
2021/12/07 03:06:27;;;;;;;29.50;20.90;;;1.70;99.90;;;;;;5064049;28;20493;-39
2021/12/07 03:28:20;;;;;;;25.58;17.50;;;1.80;99.90;;;;;;5071105;28;20051;-38
2021/12/07 03:30:47;;;;;;;21.48;15.85;;;1.80;99.90;;;;;;5053766;28;20562;-38
2021/12/07 03:33:14;;;;;;;26.17;17.10;;;1.80;99.90;;;;;;5072608;28;20139;-37
2021/12/07 03:35:41;;;;;;;27.25;17.00;;;1.80;99.90;;;;;;5072316;28;20534;-38
2021/12/07 03:38:08;;;;;;;24.50;16.33;;;1.80;99.90;;;;;;5074895;28;20045;-39
2021/12/07 03:40:35;;;;;;;26.67;16.85;;;1.80;99.90;;;;;;5049641;28;20048;-39
2021/12/07 03:43:02;;;;;;;24.35;16.98;;;1.80;99.90;;;;;;5057463;28;20575;-38
2021/12/07 03:45:31;;;;;;;24.13;16.17;;;1.80;99.90;;;;;;5056735;28;20066;-40
2021/12/07 03:47:58;;;;;;;21.63;14.25;;;1.80;99.90;;;;;;5075383;28;20048;-39
2021/12/07 03:50:25;;;;;;;21.10;14.73;;;1.80;99.90;;;;;;5056757;28;20156;-38
2021/12/07 03:52:53;;;;;;;24.27;16.45;;;1.80;99.90;;;;;;5074685;28;20128;-39
2021/12/07 03:55:20;;;;;;;27.95;16.45;;;1.80;99.90;;;;;;5075238;28;20129;-38
2021/12/07 03:57:47;;;;;;;21.92;14.77;;;1.80;99.90;;;;;;5057170;28;20435;-39
2021/12/07 04:00:15;;;;;;;24.88;15.38;;;1.80;99.90;;;;;;5074167;28;20095;-39
2021/12/07 04:02:44;;;;;;;23.45;14.90;;;1.70;99.90;;;;;;5056360;28;20052;-38
2021/12/07 04:05:14;;;;;;;21.73;14.85;;;1.70;99.90;;;;;;5057249;28;20084;-39
2021/12/07 04:07:41;;;;;;;22.52;15.88;;;1.80;99.90;;;;;;5046262;28;20056;-39
2021/12/07 04:10:09;;;;;;;20.30;13.25;;;1.70;99.90;;;;;;5055095;28;20075;-39
2021/12/07 04:12:36;;;;;;;19.88;13.80;;;1.70;99.90;;;;;;5074289;28;20061;-39
2021/12/07 04:15:03;;;;;;;21.35;14.82;;;1.70;99.90;;;;;;5056299;28;20052;-39
2021/12/07 04:17:30;;;;;;;22.58;14.52;;;1.70;99.90;;;;;;5056184;28;20064;-39
2021/12/07 04:19:58;;;;;;;20.85;14.02;;;1.80;99.90;;;;;;5054793;28;20056;-39
2021/12/07 04:22:25;;;;;;;20.42;14.20;;;1.70;99.90;;;;;;5074002;28;20136;-39
2021/12/07 04:24:52;;;;;;;21.60;12.52;;;1.80;99.90;;;;;;5065536;28;20044;-39
2021/12/07 04:27:19;;;;;;;21.25;13.40;;;1.80;99.90;;;;;;5073986;28;20055;-39
2021/12/07 04:29:46;;;;;;;27.00;14.93;;;1.80;99.90;;;;;;5074105;28;20090;-39
2021/12/07 04:32:13;;;;;;;21.60;13.85;;;1.80;99.90;;;;;;5072228;28;20080;-40
2021/12/07 04:34:40;;;;;;;21.63;14.18;;;1.80;99.90;;;;;;5069918;28;20127;-39
2021/12/07 04:37:08;;;;;;;21.75;12.80;;;1.80;99.90;;;;;;5073825;28;20044;-39
2021/12/07 04:39:35;;;;;;;20.42;12.95;;;1.80;99.90;;;;;;5073175;28;20051;-40
2021/12/07 04:42:02;;;;;;;17.50;11.35;;;1.80;99.90;;;;;;5056708;28;20137;-39
2021/12/07 04:44:31;;;;;;;19.27;13.23;;;1.80;99.90;;;;;;5051903;28;20425;-39
2021/12/07 04:47:08;;;;;;;19.73;11.93;;;1.90;99.90;;;;;;5072790;28;20064;-40
2021/12/07 04:49:57;;;;;;;14.65;10.10;;;1.80;99.90;;;;;;5073577;28;20053;-38
2021/12/07 04:57:54;;;;;;;23.88;11.65;;;1.80;99.90;;;;;;5069755;28;20051;-38
2021/12/07 05:00:22;;;;;;;17.15;12.05;;;1.80;99.90;;;;;;5054486;28;20076;-39
2021/12/07 05:02:53;;;;;;;17.23;10.65;;;1.80;99.90;;;;;;5069766;28;20048;-41
2021/12/07 05:05:22;;;;;;;21.38;10.98;;;1.80;99.90;;;;;;5071314;28;20081;-40
2021/12/07 05:07:53;;;;;;;19.02;10.90;;;1.80;99.90;;;;;;5048718;28;20067;-39
2021/12/07 05:10:30;;;;;;;16.92;10.25;;;1.80;99.90;;;;;;5052562;28;20052;-38
2021/12/07 05:13:24;;;;;;;15.73;9.85;;;1.80;99.90;;;;;;5067202;28;20048;-38
2021/12/07 05:18:56;;;;;;;17.88;10.43;;;1.70;99.90;;;;;;5065159;28;20408;-39
2021/12/07 05:24:13;;;;;;;20.88;10.43;;;1.70;99.90;;;;;;5073534;28;20060;-37
2021/12/07 05:40:25;;;;;;;25.38;12.57;;;1.80;99.90;;;;;;5065746;28;20059;-37
2021/12/07 05:42:52;;;;;;;19.08;11.23;;;1.80;99.90;;;;;;5055578;28;20056;-37
2021/12/07 05:45:21;;;;;;;26.45;13.00;;;1.80;99.90;;;;;;5076202;28;20044;-37
2021/12/07 05:47:48;;;;;;;25.83;13.23;;;1.80;99.90;;;;;;5058637;28;20072;-37
2021/12/07 05:50:16;;;;;;;26.27;12.40;;;1.80;99.90;;;;;;5054396;28;20106;-39
2021/12/07 05:52:43;;;;;;;18.83;10.80;;;1.80;99.90;;;;;;5067235;28;20052;-37
2021/12/07 05:55:10;;;;;;;23.45;10.88;;;1.80;99.90;;;;;;5072587;28;20399;-37
2021/12/07 05:57:38;;;;;;;23.45;11.55;;;1.80;99.90;;;;;;5071786;28;20044;-39
2021/12/07 06:00:08;;;;;;;17.02;10.30;;;1.80;99.90;;;;;;5053877;28;20044;-38
2021/12/07 06:02:35;;;;;;;20.58;10.82;;;1.80;99.90;;;;;;5054180;28;20114;-37
2021/12/07 06:05:02;;;;;;;20.00;11.50;;;1.80;99.90;;;;;;5062719;28;20124;-35
2021/12/07 06:07:29;;;;;;;23.83;12.27;;;1.80;99.90;;;;;;5070632;28;20059;-37
2021/12/07 06:09:56;;;;;;;28.45;12.40;;;1.80;99.90;;;;;;5071627;28;20131;-35
2021/12/07 06:12:23;;;;;;;22.88;12.07;;;1.80;99.90;;;;;;5061639;28;20203;-35
2021/12/07 06:14:55;;;;;;;29.65;13.65;;;1.80;99.90;;;;;;5070772;28;20076;-35
2021/12/07 06:17:22;;;;;;;;;;;1.80;99.90;;;;;;5053511;28;20504;-36
2021/12/07 06:19:49;;;;;;;20.17;10.57;;;1.80;99.90;;;;;;5071503;28;19947;-35
2021/12/07 06:22:16;;;;;;;23.17;11.23;;;1.80;99.90;;;;;;5062876;28;20131;-37
2021/12/07 06:24:43;;;;;;;22.77;10.80;;;1.80;99.90;;;;;;5070524;28;20463;-36
2021/12/07 06:27:10;;;;;;;22.88;11.88;;;1.80;99.90;;;;;;5066044;28;20048;-37
2021/12/07 06:29:37;;;;;;;22.95;11.45;;;1.90;99.90;;;;;;5069323;28;20571;-36
2021/12/07 06:32:06;;;;;;;16.70;9.85;;;1.90;99.90;;;;;;5068953;28;20051;-36
2021/12/07 06:34:33;;;;;;;25.55;11.60;;;1.90;99.90;;;;;;5069190;28;20079;-36
2021/12/07 06:37:00;;;;;;;21.45;11.38;;;1.90;99.90;;;;;;5071002;28;20084;-37
2021/12/07 06:39:27;;;;;;;28.30;11.00;;;1.80;99.90;;;;;;5071433;28;20040;-36
2021/12/07 06:41:54;;;;;;;26.67;12.07;;;1.90;99.90;;;;;;5072029;28;20147;-36
2021/12/07 06:44:21;;;;;;;24.30;11.52;;;1.90;99.90;;;;;;5052306;28;20051;-36
2021/12/07 06:46:48;;;;;;;21.77;10.88;;;1.90;99.90;;;;;;5054651;28;20127;-37
2021/12/07 06:49:17;;;;;;;23.98;11.82;;;1.90;99.90;;;;;;5052234;28;20565;-36
2021/12/07 06:51:44;;;;;;;28.02;11.70;;;1.90;99.90;;;;;;5065719;28;20059;-37
2021/12/07 06:54:11;;;;;;;29.92;12.00;;;1.90;99.90;;;;;;5067471;28;20610;-36
2021/12/07 06:56:38;;;;;;;27.40;11.82;;;1.90;99.90;;;;;;5052981;28;20119;-36
2021/12/07 06:59:05;;;;;;;20.35;9.50;;;1.90;99.90;;;;;;5052104;28;20064;-36
2021/12/07 07:01:32;;;;;;;25.88;11.02;;;1.90;99.90;;;;;;5066743;28;20518;-37
2021/12/07 07:03:59;;;;;;;167.02;91.63;;;1.90;99.90;;;;;;5053608;28;20048;-36
2021/12/07 07:06:27;;;;;;;32.88;13.82;;;1.90;99.90;;;;;;5053924;28;20143;-36
2021/12/07 07:08:54;;;;;;;32.45;15.55;;;1.90;99.90;;;;;;5066575;28;20055;-37
2021/12/07 07:11:21;;;;;;;61.85;29.05;;;1.80;99.90;;;;;;5074097;28;20567;-38
2021/12/07 07:13:49;;;;;;;30.02;13.57;;;1.80;99.90;;;;;;5072115;28;20128;-38
2021/12/07 07:16:16;;;;;;;44.33;24.50;;;1.80;99.90;;;;;;5050849;28;20064;-36
2021/12/07 07:18:43;;;;;;;28.63;12.18;;;1.80;99.90;;;;;;5061395;28;20071;-36
2021/12/07 07:21:10;;;;;;;27.65;12.82;;;1.70;99.90;;;;;;5075666;28;20052;-38
2021/12/07 07:23:38;;;;;;;31.13;12.13;;;1.70;99.90;;;;;;5076064;28;20121;-36
2021/12/07 07:26:05;;;;;;;34.10;14.13;;;1.70;99.90;;;;;;5062837;28;20485;-36
2021/12/07 07:28:34;;;;;;;25.98;11.70;;;1.70;99.90;;;;;;5058057;28;20147;-39
2021/12/07 07:31:01;;;;;;;28.98;12.82;;;1.70;99.90;;;;;;5075083;28;20106;-36
2021/12/07 07:33:28;;;;;;;28.13;12.55;;;1.80;99.90;;;;;;5062207;28;20048;-37
2021/12/07 07:35:55;;;;;;;26.67;12.07;;;1.70;99.90;;;;;;5073969;28;20084;-37
2021/12/07 07:38:22;;;;;;;25.33;11.82;;;1.80;99.90;;;;;;5054729;28;20451;-38
2021/12/07 07:40:50;;;;;;;37.10;13.60;;;1.70;99.90;;;;;;5075720;28;20048;-37
2021/12/07 07:43:18;;;;;;;31.98;14.38;;;1.70;99.90;;;;;;5073952;28;20484;-37
2021/12/07 07:45:45;;;;;;;32.33;14.60;;;1.80;99.90;;;;;;5074742;28;20479;-41
2021/12/07 07:48:12;;;;;;;32.20;15.48;;;1.80;99.90;;;;;;5055812;28;20482;-37
2021/12/07 07:50:39;;;;;;;34.38;13.18;;;1.90;99.90;;;;;;5056375;28;20095;-38
2021/12/07 07:53:06;;;;;;;34.85;13.68;;;1.90;99.90;;;;;;5075002;28;20480;-38
2021/12/07 07:55:33;;;;;;;27.58;12.68;;;1.90;99.90;;;;;;5073942;28;20558;-38
2021/12/07 07:58:02;;;;;;;24.65;11.73;;;1.90;99.90;;;;;;5074821;28;20056;-39
2021/12/07 08:00:29;;;;;;;24.60;11.27;;;1.90;99.90;;;;;;5056934;28;20091;-38
2021/12/07 08:02:56;;;;;;;25.50;11.18;;;2.00;99.90;;;;;;5075587;28;20048;-38
2021/12/07 08:05:23;;;;;;;25.42;11.73;;;2.00;99.90;;;;;;5056753;28;20110;-38
2021/12/07 08:07:51;;;;;;;27.55;11.57;;;2.00;99.90;;;;;;5073195;28;20051;-40
2021/12/07 08:10:20;;;;;;;31.83;11.38;;;2.00;99.90;;;;;;5050910;28;20049;-38
2021/12/07 08:12:47;;;;;;;28.40;11.30;;;2.00;99.90;;;;;;5072082;28;20475;-38
2021/12/07 08:15:17;;;;;;;23.33;10.32;;;2.00;99.90;;;;;;5055528;28;20051;-38
2021/12/07 08:17:44;;;;;;;29.67;11.35;;;2.00;99.90;;;;;;5074673;28;20053;-38
2021/12/07 08:20:12;;;;;;;22.83;10.30;;;2.00;99.90;;;;;;5055055;28;20132;-38
2021/12/07 08:22:39;;;;;;;23.63;9.75;;;2.00;99.90;;;;;;5075177;28;20463;-39
2021/12/07 08:25:07;;;;;;;24.80;9.52;;;2.00;99.90;;;;;;5053378;28;20087;-39
2021/12/07 08:27:34;;;;;;;25.98;9.85;;;2.00;99.90;;;;;;5057268;28;20098;-38
2021/12/07 08:30:01;;;;;;;32.13;10.70;;;2.00;99.90;;;;;;5057664;28;20095;-38
2021/12/07 08:32:29;;;;;;;30.52;10.40;;;2.00;99.90;;;;;;5055911;28;20135;-38
2021/12/07 08:34:56;;;;;;;25.50;9.50;;;2.00;99.90;;;;;;5070677;28;20119;-38
2021/12/07 08:37:23;;;;;;;24.17;10.32;;;2.00;99.90;;;;;;5072009;28;20040;-40
2021/12/07 08:39:50;;;;;;;28.27;10.80;;;2.10;99.90;;;;;;5072646;28;20048;-38
2021/12/07 08:42:19;;;;;;;24.70;10.30;;;2.10;99.90;;;;;;5073513;28;20102;-38
2021/12/07 08:44:46;;;;;;;28.17;9.60;;;2.10;99.90;;;;;;5047778;28;20052;-38
2021/12/07 08:47:13;;;;;;;25.55;10.35;;;2.20;99.90;;;;;;5073475;28;20056;-37
2021/12/07 08:49:42;;;;;;;39.85;10.52;;;2.20;99.90;;;;;;5054704;28;20074;-38
2021/12/07 08:52:09;;;;;;;28.35;9.55;;;2.20;99.90;;;;;;5055790;28;20613;-38
2021/12/07 08:59:38;;;;;;;29.92;11.05;;;2.30;99.90;;;;;;5073338;28;20074;-37
2021/12/07 09:00:08;;;;;;;38.95;18.08;;;2.30;99.90;;;;;;5057207;28;20056;-38
2021/12/07 09:02:35;;;;;;;37.83;13.90;;;2.40;99.90;;;;;;5070378;28;20504;-37
2021/12/07 09:05:04;;;;;;;34.90;10.70;;;2.50;99.90;;;;;;5054533;28;20143;-38
2021/12/07 09:07:31;;;;;;;33.50;10.60;;;2.50;99.90;;;;;;5069404;28;20048;-38
2021/12/07 09:09:58;;;;;;;48.28;26.27;;;2.60;99.90;;;;;;5052782;28;20454;-38
2021/12/07 09:12:26;;;;;;;26.83;10.20;;;2.60;99.90;;;;;;5053657;28;20057;-38
2021/12/07 09:14:53;;;;;;;28.17;11.13;;;2.60;99.90;;;;;;5055420;28;20040;-38
2021/12/07 09:17:20;;;;;;;27.70;10.25;;;2.70;99.90;;;;;;5055411;28;20052;-39
2021/12/07 09:19:47;;;;;;;35.97;10.50;;;2.70;99.90;;;;;;5055314;28;20082;-39
2021/12/07 09:22:15;;;;;;;28.67;10.10;;;2.80;99.90;;;;;;5053425;28;20131;-39
2021/12/07 09:24:43;;;;;;;25.95;8.68;;;2.80;99.90;;;;;;5072745;28;20131;-39
2021/12/07 09:27:10;;;;;;;27.40;9.55;;;2.90;99.90;;;;;;5055112;28;20048;-39
2021/12/07 09:29:37;;;;;;;26.83;9.00;;;2.90;99.90;;;;;;5055255;28;20048;-40
2021/12/07 09:32:04;;;;;;;23.27;10.02;;;2.90;99.90;;;;;;5069116;28;20051;-37
2021/12/07 09:34:31;;;;;;;34.83;10.93;;;3.00;99.90;;;;;;5069003;28;20074;-39
2021/12/07 09:36:58;;;;;;;25.70;10.15;;;3.00;99.90;;;;;;5055441;28;20057;-36
2021/12/07 09:39:27;;;;;;;30.88;10.55;;;3.00;99.90;;;;;;5054849;28;20045;-36
2021/12/07 09:41:55;;;;;;;31.65;9.73;;;3.10;99.90;;;;;;5054515;28;20392;-36
2021/12/07 09:44:22;;;;;;;33.42;9.20;;;3.10;99.90;;;;;;5054898;28;20041;-38
2021/12/07 09:46:49;;;;;;;23.55;9.65;;;3.10;99.90;;;;;;5055306;28;20049;-36
2021/12/07 09:49:17;;;;;;;44.78;18.05;;;3.20;99.90;;;;;;5052875;28;20152;-36
2021/12/07 09:51:44;;;;;;;24.70;9.40;;;3.20;99.90;;;;;;5068694;28;20132;-38
2021/12/07 09:54:11;;;;;;;24.63;9.75;;;3.30;99.90;;;;;;5053794;28;20044;-36
2021/12/07 09:56:40;;;;;;;33.63;12.65;;;3.30;99.90;;;;;;5070965;28;20059;-37
2021/12/07 09:59:07;;;;;;;23.60;9.02;;;3.40;99.90;;;;;;5072114;28;20133;-37
2021/12/07 10:01:35;;;;;;;33.72;9.65;;;3.50;99.90;;;;;;5071577;28;20526;-40
2021/12/07 10:04:02;;;;;;;25.38;10.52;;;3.50;99.90;;;;;;5055138;28;20083;-38
2021/12/07 10:06:29;;;;;;;29.73;10.05;;;3.50;99.90;;;;;;5054321;28;20145;-38
2021/12/07 10:08:56;;;;;;;28.58;12.93;;;3.60;99.90;;;;;;5072255;28;20059;-37
2021/12/07 10:11:23;;;;;;;26.33;11.65;;;3.60;99.90;;;;;;5069195;28;20496;-37
2021/12/07 10:13:52;;;;;;;30.15;8.77;;;3.70;99.90;;;;;;5072020;28;20496;-38
2021/12/07 10:16:20;;;;;;;21.05;9.13;;;3.80;99.90;;;;;;5053383;28;20053;-37
2021/12/07 10:18:47;;;;;;;23.63;9.73;;;3.80;99.90;;;;;;5072497;28;20059;-38
2021/12/07 10:21:16;;;;;;;23.58;9.15;;;3.80;99.90;;;;;;5053699;28;20124;-38
2021/12/07 10:23:43;;;;;;;23.35;8.27;;;3.80;99.90;;;;;;5072082;28;20139;-38
2021/12/07 10:26:11;;;;;;;27.52;8.70;;;3.90;99.90;;;;;;5054520;28;20075;-37
2021/12/07 10:28:40;;;;;;;28.52;8.38;;;3.90;99.90;;;;;;5072749;28;20115;-38
2021/12/07 10:31:21;;;;;;;21.45;8.00;;;4.00;99.90;;;;;;5072173;28;20048;-39
2021/12/07 10:33:50;;;;;;;24.80;7.32;;;4.10;99.90;;;;;;5072792;28;20129;-37
2021/12/07 10:36:18;;;;;;;23.88;9.18;;;4.10;99.90;;;;;;5063620;28;20377;-38
2021/12/07 10:38:48;;;;;;;24.60;8.35;;;4.10;99.90;;;;;;5071156;28;20469;-38
2021/12/07 10:41:21;;;;;;;28.50;8.65;;;4.20;99.90;;;;;;5062718;28;20407;-37
2021/12/07 10:43:56;;;;;;;20.10;7.63;;;4.20;99.90;;;;;;5053715;28;20048;-39
2021/12/07 10:46:39;;;;;;;19.02;7.05;;;4.30;99.90;;;;;;5072201;28;20074;-38
2021/12/07 10:49:42;;;;;;;21.58;8.45;;;4.30;99.90;;;;;;5072662;28;20074;-38
2021/12/07 10:52:15;;;;;;;22.27;7.82;;;4.40;99.90;;;;;;5054255;28;20066;-39
2021/12/07 10:54:52;;;;;;;19.50;8.13;;;4.40;99.90;;;;;;5053359;28;20090;-39
2021/12/07 10:57:21;;;;;;;24.25;7.28;;;4.50;99.90;;;;;;5071109;28;20058;-38
2021/12/07 10:59:59;;;;;;;21.50;6.88;;;4.50;99.90;;;;;;5070590;28;20049;-38
2021/12/07 11:02:31;;;;;;;16.60;6.63;;;4.60;99.90;;;;;;5053051;28;20080;-41
2021/12/07 11:04:58;;;;;;;20.23;7.85;;;4.60;99.90;;;;;;5070899;28;20518;-38
2021/12/07 11:07:25;;;;;;;15.80;6.55;;;4.60;99.90;;;;;;5070318;28;20056;-38
2021/12/07 11:10:02;;;;;;;26.27;6.50;;;4.70;99.90;;;;;;5052887;28;20097;-38
2021/12/07 11:12:34;;;;;;;25.60;6.90;;;4.80;99.90;;;;;;5070377;28;20052;-38
2021/12/07 11:15:02;;;;;;;23.33;6.70;;;4.80;99.90;;;;;;5070836;28;20060;-39
2021/12/07 11:17:34;;;;;;;18.88;6.40;;;4.80;99.90;;;;;;5052927;28;20082;-38
2021/12/07 11:20:02;;;;;;;14.85;6.00;;;4.90;99.90;;;;;;5052465;28;20045;-39
2021/12/07 11:22:32;;;;;;;20.70;6.10;;;4.90;99.90;;;;;;5069439;28;20056;-40
2021/12/07 11:25:01;;;;;;;28.52;8.23;;;5.00;99.90;;;;;;5070152;28;20036;-41
2021/12/07 11:30:13;;;;;;;16.08;5.75;;;5.10;99.90;;;;;;5052976;28;20075;-40
2021/12/07 11:32:44;;;;;;;23.90;8.43;;;5.10;99.90;;;;;;5065816;28;20105;-40
2021/12/07 11:35:15;;;;;;;24.75;8.85;;;5.20;99.90;;;;;;5052542;28;20045;-40
2021/12/07 11:37:42;;;;;;;22.98;6.07;;;5.20;99.90;;;;;;5053796;28;20075;-40
2021/12/07 11:40:10;;;;;;;23.23;5.60;;;5.30;99.90;;;;;;5071139;28;20060;-40
2021/12/07 11:42:38;;;;;;;25.70;5.82;;;5.30;99.90;;;;;;5071241;28;20124;-41
2021/12/07 11:45:08;;;;;;;22.10;6.53;;;5.30;99.90;;;;;;5071220;28;20047;-39
2021/12/07 11:47:36;;;;;;;20.30;5.50;;;5.40;99.90;;;;;;5054433;28;20492;-39
2021/12/07 11:50:12;;;;;;;24.25;6.47;;;5.40;99.90;;;;;;5071964;28;20110;-38
2021/12/07 11:52:39;;;;;;;22.67;5.70;;;5.40;99.90;;;;;;5054513;28;20049;-39
2021/12/07 11:55:07;;;;;;;24.90;8.18;;;5.50;99.90;;;;;;5057295;28;20503;-39
2021/12/07 11:57:36;;;;;;;28.77;7.85;;;5.50;99.90;;;;;;5074990;28;20503;-39
2021/12/07 12:00:05;;;;;;;20.48;7.47;;;5.50;99.90;;;;;;5074731;28;20045;-38
2021/12/07 12:02:32;;;;;;;22.45;6.10;;;5.60;99.90;;;;;;5074599;28;20048;-38
2021/12/07 12:04:59;;;;;;;19.55;5.75;;;5.60;99.90;;;;;;5075108;28;20044;-39
2021/12/07 12:07:28;;;;;;;30.73;6.85;;;5.60;99.90;;;;;;5074276;28;20508;-39
2021/12/07 12:09:55;;;;;;;17.50;6.22;;;5.60;99.90;;;;;;5074628;28;20128;-38
2021/12/07 12:12:25;;;;;;;21.35;5.82;;;5.70;99.90;;;;;;5055404;28;20068;-38
2021/12/07 12:15:06;;;;;;;20.05;6.20;;;5.70;99.90;;;;;;5055250;28;20595;-38
2021/12/07 12:17:38;;;;;;;14.77;6.82;;;5.70;99.90;;;;;;5053004;28;20526;-38
2021/12/07 12:20:12;;;;;;;37.55;19.45;;;5.70;99.90;;;;;;5057786;28;20060;-39
2021/12/07 12:22:43;;;;;;;25.38;9.43;;;5.70;99.90;;;;;;5074874;28;20110;-39
2021/12/07 12:25:13;;;;;;;23.35;6.72;;;5.70;99.90;;;;;;5074112;28;20044;-40
2021/12/07 12:27:40;;;;;;;18.30;6.03;;;5.70;99.90;;;;;;5073717;28;20052;-39
2021/12/07 12:30:18;;;;;;;19.25;6.22;;;5.70;99.90;;;;;;5055601;28;20044;-39
2021/12/07 12:32:46;;;;;;;24.75;6.95;;;5.70;99.90;;;;;;5057767;28;20052;-39
2021/12/07 12:35:13;;;;;;;22.02;6.47;;;5.70;99.90;;;;;;5095034;28;20051;-39
2021/12/07 12:37:46;;;;;;;20.40;6.18;;;5.70;99.90;;;;;;5074821;28;20098;-39
2021/12/07 12:40:18;;;;;;;26.27;5.90;;;5.70;99.90;;;;;;5056783;28;20139;-39
2021/12/07 12:42:46;;;;;;;25.50;6.82;;;5.60;99.90;;;;;;5058328;28;20052;-39
2021/12/07 12:45:20;;;;;;;42.47;20.52;;;5.70;99.90;;;;;;5073958;28;20045;-39
2021/12/07 12:47:54;;;;;;;18.25;5.72;;;5.60;99.90;;;;;;5074659;28;20091;-39
2021/12/07 12:50:23;;;;;;;23.10;8.57;;;5.60;99.90;;;;;;5054480;28;20468;-39
2021/12/07 12:52:53;;;;;;;27.95;18.33;;;5.60;99.90;;;;;;5056275;28;20090;-40
2021/12/07 12:55:35;;;;;;;22.20;7.57;;;5.60;99.90;;;;;;5074253;28;20060;-39
2021/12/07 12:58:03;;;;;;;25.65;6.82;;;5.50;99.90;;;;;;5074040;28;20107;-40
2021/12/07 13:01:07;;;;;;;20.95;6.22;;;5.50;99.90;;;;;;5074144;28;20044;-40
2021/12/07 13:03:49;;;;;;;16.10;5.68;;;5.50;99.90;;;;;;5043346;28;20052;-41
2021/12/07 13:06:22;;;;;;;24.48;7.35;;;5.50;99.90;;;;;;5055920;28;20060;-39
2021/12/07 13:08:54;;;;;;;26.55;6.03;;;5.50;99.90;;;;;;5054990;28;20049;-40
2021/12/07 13:11:32;;;;;;;20.42;5.90;;;5.50;99.90;;;;;;5074200;28;20053;-40
2021/12/07 13:13:59;;;;;;;18.63;5.68;;;5.50;99.90;;;;;;5073751;28;20048;-40
2021/12/07 13:16:26;;;;;;;24.40;5.82;;;5.40;99.90;;;;;;5074009;28;20114;-40
2021/12/07 13:19:00;;;;;;;28.02;6.65;;;5.50;99.90;;;;;;5054533;28;20128;-39
2021/12/07 13:21:27;;;;;;;21.17;6.78;;;5.50;99.90;;;;;;5038187;28;20045;-41
2021/12/07 13:24:00;;;;;;;18.48;6.00;;;5.50;99.90;;;;;;5073416;28;20048;-41
2021/12/07 13:26:27;;;;;;;26.40;6.50;;;5.50;99.90;;;;;;5055590;28;20056;-40
2021/12/07 13:29:05;;;;;;;22.40;6.50;;;5.50;99.90;;;;;;5055571;28;20139;-39
2021/12/07 13:31:38;;;;;;;16.67;6.25;;;5.50;99.90;;;;;;5073586;28;20095;-41
2021/12/07 13:34:05;;;;;;;21.25;6.40;;;5.50;99.90;;;;;;5073147;28;20079;-39
2021/12/07 13:36:37;;;;;;;21.40;6.90;;;5.50;99.90;;;;;;5055831;28;20156;-41
2021/12/07 13:39:28;;;;;;;26.33;7.07;;;5.40;99.90;;;;;;5073962;28;20051;-39
2021/12/07 13:41:57;;;;;;;28.23;7.22;;;5.40;99.90;;;;;;5055163;28;20144;-39
2021/12/07 13:44:24;;;;;;;24.73;7.00;;;5.40;99.90;;;;;;5073807;28;20048;-39
2021/12/07 13:46:53;;;;;;;66.85;37.85;;;5.40;99.90;;;;;;5073438;28;20393;-38
2021/12/07 13:49:20;;;;;;;35.53;18.60;;;5.30;99.90;;;;;;5066123;28;20128;-38
2021/12/07 13:51:47;;;;;;;30.77;13.60;;;5.30;99.90;;;;;;5053400;28;20094;-38
2021/12/07 13:54:18;;;;;;;29.17;10.25;;;5.30;99.90;;;;;;5065300;28;20051;-39
2021/12/07 13:56:45;;;;;;;34.83;9.30;;;5.30;99.90;;;;;;5055324;28;20500;-38
2021/12/07 13:59:13;;;;;;;26.65;9.73;;;5.30;99.90;;;;;;5071529;28;20569;-38
2021/12/07 14:01:41;;;;;;;32.25;11.73;;;5.30;99.90;;;;;;5055354;28;20045;-39
2021/12/07 14:04:08;;;;;;;29.15;9.10;;;5.20;99.90;;;;;;5071957;28;20079;-39
2021/12/07 14:06:35;;;;;;;23.23;9.07;;;5.20;99.90;;;;;;5054584;28;20057;-39